Time;durP1;ratioP1;P1;durP2;ratioP2;P2;SDS_P1;SDS_P2;PMS_P1;PMS_P2;Temp;Humidity;BMP_temperature;BMP_pressure;BME280_temperature;BME280_humidity;BME280_pressure;Samples;Min_cycle;Max_cycle;Signal;HPM_P1;HPM_P2
2022/04/06 00:01:49;;;;;;;10.65;7.88;;;5.00;99.90;;;;;;4970329;28;19913;-79
2022/04/06 00:04:15;;;;;;;;;;;5.00;99.90;;;;;;4969653;28;20045;-79
2022/04/06 00:06:41;;;;;;;10.45;8.45;;;5.00;99.90;;;;;;4952864;28;20005;-79
2022/04/06 00:09:06;;;;;;;;;;;5.10;99.90;;;;;;4970931;28;20023;-79
2022/04/06 00:11:32;;;;;;;11.48;8.10;;;5.20;99.90;;;;;;4969951;28;20597;-80
2022/04/06 00:13:58;;;;;;;;;;;5.30;99.90;;;;;;4970482;28;20410;-79
2022/04/06 00:16:24;;;;;;;8.65;7.38;;;5.40;99.90;;;;;;4952550;28;19910;-81
2022/04/06 00:18:51;;;;;;;;;;;5.40;99.90;;;;;;4971881;28;20089;-82
2022/04/06 00:21:17;;;;;;;12.18;8.02;;;5.50;99.90;;;;;;4952915;28;19991;-78
2022/04/06 00:23:43;;;;;;;11.80;8.00;;;5.50;99.90;;;;;;4970076;28;20510;-80
2022/04/06 00:26:09;;;;;;;;;;;5.50;99.90;;;;;;4954139;28;20439;-79
2022/04/06 00:28:34;;;;;;;11.68;8.77;;;5.60;99.90;;;;;;4953261;28;20362;-81
2022/04/06 00:31:00;;;;;;;;;;;5.70;99.90;;;;;;4953698;28;20035;-82
2022/04/06 00:33:26;;;;;;;10.13;7.93;;;5.70;99.90;;;;;;4971318;28;19988;-80
2022/04/06 00:35:52;;;;;;;9.23;6.85;;;5.70;99.90;;;;;;4957849;28;20443;-80
2022/04/06 00:38:17;;;;;;;;;;;5.80;99.90;;;;;;4957402;28;20027;-79
2022/04/06 00:40:43;;;;;;;13.85;8.85;;;5.70;99.90;;;;;;4956530;28;20016;-79
2022/04/06 00:43:11;;;;;;;12.38;9.50;;;5.80;99.90;;;;;;4973774;28;20033;-78
2022/04/06 00:45:38;;;;;;;12.18;8.52;;;5.70;99.90;;;;;;4958022;28;20031;-78
2022/04/06 00:48:04;;;;;;;10.75;8.07;;;5.70;99.90;;;;;;4973553;28;20061;-76
2022/04/06 00:50:31;;;;;;;9.95;7.60;;;5.70;99.90;;;;;;4973328;28;20085;-77
2022/04/06 00:52:57;;;;;;;11.15;8.50;;;5.70;99.90;;;;;;4973467;28;20040;-78
2022/04/06 00:55:32;;;;;;;11.60;9.32;;;5.60;99.90;;;;;;4973669;28;20037;-77
2022/04/06 00:57:58;;;;;;;11.30;9.13;;;5.50;99.90;;;;;;4973515;28;20074;-77
2022/04/06 01:00:25;;;;;;;11.05;9.00;;;5.50;99.90;;;;;;4973324;28;20019;-79
2022/04/06 01:02:51;;;;;;;10.27;8.18;;;5.40;99.90;;;;;;4955764;28;20105;-77
2022/04/06 01:05:16;;;;;;;;;;;5.40;99.90;;;;;;4956384;28;20106;-78
2022/04/06 01:07:47;;;;;;;11.63;9.10;;;5.30;99.90;;;;;;4955741;28;19933;-78
2022/04/06 01:10:12;;;;;;;13.35;9.93;;;5.30;99.90;;;;;;4955489;28;20462;-79
2022/04/06 01:12:38;;;;;;;;;;;5.20;99.90;;;;;;4955844;28;20027;-77
2022/04/06 01:15:05;;;;;;;15.57;9.60;;;5.10;99.90;;;;;;4972872;28;20370;-75
2022/04/06 01:17:35;;;;;;;16.60;9.75;;;5.10;99.90;;;;;;4972824;28;20030;-77
2022/04/06 01:20:02;;;;;;;11.77;9.77;;;5.10;99.90;;;;;;4955556;28;20023;-77
2022/04/06 01:22:28;;;;;;;13.55;10.07;;;5.10;99.90;;;;;;4972619;28;20043;-77
2022/04/06 01:24:54;;;;;;;;;;;5.10;99.90;;;;;;4971811;28;20035;-76
2022/04/06 01:27:20;;;;;;;12.13;9.18;;;5.00;99.90;;;;;;4972941;28;19910;-79
2022/04/06 01:29:46;;;;;;;;;;;5.00;99.90;;;;;;4955962;28;20031;-78
2022/04/06 01:32:17;;;;;;;10.02;7.85;;;5.10;99.90;;;;;;4954982;28;19918;-78
2022/04/06 01:34:43;;;;;;;9.55;7.40;;;5.10;99.90;;;;;;4954921;28;20086;-78
2022/04/06 01:37:11;;;;;;;11.55;8.18;;;5.10;99.90;;;;;;4954762;28;20058;-79
2022/04/06 01:39:37;;;;;;;10.90;8.38;;;5.10;99.90;;;;;;4955054;28;20030;-79
2022/04/06 01:42:05;;;;;;;11.15;8.77;;;5.10;99.90;;;;;;4972044;28;20321;-79
2022/04/06 01:44:32;;;;;;;11.10;7.97;;;5.20;99.90;;;;;;4970418;28;20023;-79
2022/04/06 01:47:02;;;;;;;11.70;8.95;;;5.20;99.90;;;;;;4971570;28;20105;-79
2022/04/06 01:52:12;;;;;;;11.90;8.80;;;5.30;99.90;;;;;;4972661;28;20081;-78
2022/04/06 01:54:46;;;;;;;;;;;5.30;99.90;;;;;;4972976;28;20043;-77
2022/04/06 01:57:12;;;;;;;9.70;7.68;;;5.40;99.90;;;;;;4972351;28;19910;-78
2022/04/06 01:59:38;;;;;;;13.60;8.50;;;5.40;99.90;;;;;;4972189;28;20038;-79
2022/04/06 02:02:04;;;;;;;;;;;5.30;99.90;;;;;;4972116;28;20054;-76
2022/04/06 02:04:30;;;;;;;10.13;7.85;;;5.40;99.90;;;;;;4971844;28;20013;-79
2022/04/06 02:06:56;;;;;;;;;;;5.30;99.90;;;;;;4954972;28;20564;-78
2022/04/06 02:09:21;;;;;;;12.30;8.50;;;5.30;99.90;;;;;;4972167;28;20470;-77
2022/04/06 02:11:47;;;;;;;;;;;5.40;99.90;;;;;;4972315;28;20042;-78
2022/04/06 02:14:13;;;;;;;17.10;9.23;;;5.30;99.90;;;;;;4971995;28;19914;-76
2022/04/06 02:16:39;;;;;;;;;;;5.30;99.90;;;;;;4954908;28;20027;-77
2022/04/06 02:19:05;;;;;;;12.65;10.15;;;5.40;99.90;;;;;;4971920;28;20366;-73
2022/04/06 02:21:31;;;;;;;15.02;10.85;;;5.40;99.90;;;;;;4971565;28;20031;-73
2022/04/06 02:23:57;;;;;;;13.68;10.43;;;5.40;99.90;;;;;;4971379;28;20042;-79
2022/04/06 02:26:23;;;;;;;;;;;5.40;99.90;;;;;;4970749;28;20384;-77
2022/04/06 02:28:49;;;;;;;17.00;12.10;;;5.40;99.90;;;;;;4954254;28;19949;-78
2022/04/06 02:31:14;;;;;;;15.48;10.57;;;5.50;99.90;;;;;;4971870;28;20035;-78
2022/04/06 02:33:40;;;;;;;11.60;9.57;;;5.50;99.90;;;;;;4969703;28;20193;-77
2022/04/06 02:36:06;;;;;;;;;;;5.50;99.90;;;;;;4971841;28;20106;-79
2022/04/06 02:38:31;;;;;;;14.65;9.38;;;5.40;99.90;;;;;;4971510;28;20068;-79
2022/04/06 02:40:57;;;;;;;;;;;5.30;99.90;;;;;;4972102;28;20555;-78
2022/04/06 02:43:23;;;;;;;11.40;9.23;;;5.30;99.90;;;;;;4971568;28;19914;-78
2022/04/06 02:45:48;;;;;;;13.13;10.15;;;5.20;99.90;;;;;;4971373;28;20131;-77
2022/04/06 02:48:16;;;;;;;15.25;11.13;;;5.10;99.90;;;;;;4971168;28;20531;-80
2022/04/06 02:50:42;;;;;;;17.42;11.23;;;5.00;99.90;;;;;;4971310;28;20019;-77
2022/04/06 02:53:07;;;;;;;;;;;5.00;99.90;;;;;;4954322;28;20031;-77
2022/04/06 02:55:33;;;;;;;12.15;10.10;;;4.90;99.90;;;;;;4971071;28;20013;-77
2022/04/06 02:57:59;;;;;;;;;;;4.80;99.90;;;;;;4970904;28;20403;-78
2022/04/06 03:00:24;;;;;;;13.88;10.70;;;4.80;99.90;;;;;;4953353;28;19914;-79
2022/04/06 03:02:50;;;;;;;;;;;4.70;99.90;;;;;;4970223;28;20026;-77
2022/04/06 03:05:15;;;;;;;17.60;12.25;;;4.70;99.90;;;;;;4971093;28;19993;-77
2022/04/06 03:07:41;;;;;;;16.98;11.60;;;4.70;99.90;;;;;;4971047;28;20099;-80
2022/04/06 03:10:07;;;;;;;;;;;4.70;99.90;;;;;;4970369;28;20038;-80
2022/04/06 03:12:33;;;;;;;18.10;12.13;;;4.70;99.90;;;;;;4953494;28;19913;-79
2022/04/06 03:14:58;;;;;;;;;;;4.70;99.90;;;;;;4970256;28;20039;-79
2022/04/06 03:17:24;;;;;;;17.92;12.85;;;4.60;99.90;;;;;;4970590;28;19917;-79
2022/04/06 03:19:50;;;;;;;16.75;13.80;;;4.70;99.90;;;;;;4969112;28;20121;-79
2022/04/06 03:22:17;;;;;;;;;;;4.80;99.90;;;;;;4969979;28;20031;-79
2022/04/06 03:24:43;;;;;;;;;;;4.90;99.90;;;;;;4970975;28;20006;-80
2022/04/06 03:27:09;;;;;;;17.52;11.77;;;4.90;99.90;;;;;;4970637;28;20000;-79
2022/04/06 03:29:34;;;;;;;;;;;5.00;99.90;;;;;;4969826;28;20035;-79
2022/04/06 03:32:00;;;;;;;16.45;12.02;;;5.00;99.90;;;;;;4953746;28;20017;-80
2022/04/06 03:34:26;;;;;;;14.27;11.05;;;5.10;99.90;;;;;;4970651;28;20039;-79
2022/04/06 03:36:52;;;;;;;;;;;5.00;99.90;;;;;;4970684;28;20291;-78
2022/04/06 03:39:17;;;;;;;15.00;11.20;;;5.00;99.90;;;;;;4953363;28;19910;-77
2022/04/06 03:41:43;;;;;;;;;;;5.00;99.90;;;;;;4970712;28;20121;-79
2022/04/06 03:44:08;;;;;;;16.17;12.18;;;5.00;99.90;;;;;;4952650;28;19916;-77
2022/04/06 03:46:34;;;;;;;15.23;11.00;;;4.90;99.90;;;;;;4968693;28;20048;-84
2022/04/06 03:49:00;;;;;;;;;;;4.90;99.90;;;;;;4969302;28;20085;-78
2022/04/06 03:51:25;;;;;;;16.17;10.90;;;4.90;99.90;;;;;;4970237;28;19910;-78
2022/04/06 03:53:51;;;;;;;13.27;10.93;;;4.90;99.90;;;;;;4968994;28;20039;-78
2022/04/06 03:56:16;;;;;;;;;;;4.90;99.90;;;;;;4970794;28;20118;-78
2022/04/06 03:58:42;;;;;;;16.70;12.13;;;5.00;99.90;;;;;;4970156;28;19917;-79
2022/04/06 04:01:07;;;;;;;;;;;4.90;99.90;;;;;;4970665;28;20050;-77
2022/04/06 04:03:33;;;;;;;13.75;10.73;;;4.90;99.90;;;;;;4954189;28;19957;-79
2022/04/06 04:05:59;;;;;;;14.52;11.55;;;4.90;99.90;;;;;;4970270;28;20026;-78
2022/04/06 04:08:26;;;;;;;16.92;12.25;;;4.80;99.90;;;;;;4969109;28;20062;-79
2022/04/06 04:10:52;;;;;;;19.10;14.40;;;4.80;99.90;;;;;;4968692;28;20122;-78
2022/04/06 04:13:18;;;;;;;31.65;20.35;;;4.70;99.90;;;;;;4969944;28;20406;-78
2022/04/06 04:15:44;;;;;;;;;;;4.70;99.90;;;;;;4969359;28;20027;-77
2022/04/06 04:18:10;;;;;;;37.78;25.88;;;4.70;99.90;;;;;;4970033;28;20390;-76
2022/04/06 04:20:35;;;;;;;;;;;4.80;99.90;;;;;;4970153;28;20597;-78
2022/04/06 04:23:01;;;;;;;24.52;18.65;;;4.80;99.90;;;;;;4952492;28;19914;-78
2022/04/06 04:25:27;;;;;;;;;;;4.80;99.90;;;;;;4970307;28;20407;-78
2022/04/06 04:27:52;;;;;;;22.63;17.83;;;4.90;99.90;;;;;;4969868;28;20401;-79
2022/04/06 04:30:19;;;;;;;;;;;4.90;99.90;;;;;;4968905;28;20042;-78
2022/04/06 04:32:45;;;;;;;22.23;16.55;;;4.90;99.90;;;;;;4969424;28;19910;-79
2022/04/06 04:35:11;;;;;;;;;;;4.90;99.90;;;;;;4969010;28;20042;-79
2022/04/06 04:37:36;;;;;;;24.75;18.08;;;4.90;99.90;;;;;;4952337;28;19910;-73
2022/04/06 04:40:03;;;;;;;;;;;4.90;99.90;;;;;;4970145;28;20047;-78
2022/04/06 04:42:29;;;;;;;26.50;17.45;;;4.90;99.90;;;;;;4952006;28;19917;-76
2022/04/06 04:44:54;;;;;;;;;;;5.00;99.90;;;;;;4968587;28;20030;-74
2022/04/06 04:47:20;;;;;;;20.98;15.73;;;5.10;99.90;;;;;;4969579;28;19910;-72
2022/04/06 04:49:45;;;;;;;;;;;5.30;99.90;;;;;;4968937;28;20042;-73
2022/04/06 04:52:11;;;;;;;24.83;18.27;;;5.80;99.90;;;;;;4952223;28;20330;-80
2022/04/06 04:54:37;;;;;;;;;;;6.30;99.90;;;;;;4969717;28;20488;-80
2022/04/06 04:57:03;;;;;;;29.95;19.25;;;6.90;99.90;;;;;;4952152;28;20009;-76
2022/04/06 04:59:29;;;;;;;29.88;19.40;;;7.60;99.90;;;;;;4968168;28;20069;-76
2022/04/06 05:01:54;;;;;;;;;;;8.10;99.90;;;;;;4969474;28;20055;-75
2022/04/06 05:04:20;;;;;;;40.85;23.17;;;8.30;99.90;;;;;;4969383;28;19913;-79
2022/04/06 05:06:45;;;;;;;;;;;8.10;99.90;;;;;;4969669;28;20035;-78
2022/04/06 05:09:11;;;;;;;35.67;22.38;;;7.80;99.90;;;;;;4952005;28;19960;-75
2022/04/06 05:11:37;;;;;;;31.60;19.38;;;7.50;99.90;;;;;;4969297;28;20035;-80
2022/04/06 05:14:02;;;;;;;;;;;7.20;99.90;;;;;;4969773;28;20057;-80
2022/04/06 05:16:28;;;;;;;24.95;16.70;;;7.10;99.90;;;;;;4952077;28;19921;-78
2022/04/06 05:18:56;;;;;;;;;;;7.00;99.90;;;;;;4968536;28;20027;-79
2022/04/06 05:21:22;;;;;;;27.30;18.30;;;6.80;99.90;;;;;;4955656;28;19914;-81
2022/04/06 05:23:48;;;;;;;;;;;6.80;99.90;;;;;;4973465;28;20035;-81
2022/04/06 05:26:13;;;;;;;34.03;19.23;;;7.00;99.90;;;;;;4956374;28;19940;-81
2022/04/06 05:28:39;;;;;;;;;;;7.50;99.90;;;;;;4972419;28;20031;-82
2022/04/06 05:31:04;;;;;;;29.15;18.85;;;7.90;99.90;;;;;;4973809;28;19917;-82
2022/04/06 05:33:30;;;;;;;;;;;8.20;99.90;;;;;;4973271;28;20073;-79
2022/04/06 05:35:55;;;;;;;30.83;18.95;;;8.30;99.90;;;;;;4955947;28;19917;-80
2022/04/06 05:38:21;;;;;;;29.80;18.90;;;8.40;99.90;;;;;;4971640;28;20038;-79
2022/04/06 05:40:47;;;;;;;;;;;8.50;99.90;;;;;;4971222;28;20077;-81
2022/04/06 05:43:12;;;;;;;25.35;17.95;;;8.70;99.90;;;;;;4972281;28;19982;-79
2022/04/06 05:45:38;;;;;;;;;;;8.80;99.90;;;;;;4972670;28;20023;-78
2022/04/06 05:48:05;;;;;;;23.75;16.42;;;8.90;99.90;;;;;;4972844;28;19916;-78
2022/04/06 05:50:30;;;;;;;22.63;16.33;;;9.00;99.90;;;;;;4972330;28;20037;-79
2022/04/06 05:52:56;;;;;;;;;;;9.10;99.90;;;;;;4971685;28;20030;-78
2022/04/06 05:55:22;;;;;;;16.30;12.88;;;9.20;99.90;;;;;;4955296;28;19910;-78
2022/04/06 05:57:47;;;;;;;;;;;9.40;99.90;;;;;;4972613;28;20109;-79
2022/04/06 06:00:14;;;;;;;15.63;11.48;;;9.40;99.90;;;;;;4971995;28;19910;-78
2022/04/06 06:02:42;;;;;;;17.33;12.32;;;9.40;99.90;;;;;;4972547;28;20030;-80
2022/04/06 06:05:08;;;;;;;13.40;11.45;;;9.40;99.90;;;;;;4972096;28;20034;-80
2022/04/06 06:07:33;;;;;;;;;;;9.70;99.90;;;;;;4971269;28;20027;-80
2022/04/06 06:09:59;;;;;;;13.25;10.63;;;10.30;99.90;;;;;;4955149;28;19910;-80
2022/04/06 06:12:25;;;;;;;;;;;11.10;99.90;;;;;;4972623;28;20050;-80
2022/04/06 06:14:50;;;;;;;13.52;8.85;;;11.90;99.90;;;;;;4954301;28;19922;-81
2022/04/06 06:17:16;;;;;;;;;;;12.80;99.90;;;;;;4972434;28;20555;-81
2022/04/06 06:19:41;;;;;;;10.77;8.52;;;13.60;99.90;;;;;;4954965;28;19910;-81
2022/04/06 06:22:07;;;;;;;6.90;5.75;;;14.20;99.90;;;;;;4972108;28;20038;-81
2022/04/06 06:24:33;;;;;;;7.65;5.82;;;14.90;99.90;;;;;;4954330;28;20566;-81
2022/04/06 06:26:58;;;;;;;6.63;3.80;;;15.60;99.90;;;;;;4954274;28;20098;-80
2022/04/06 06:29:24;;;;;;;6.50;4.85;;;16.40;99.20;;;;;;4954400;28;20061;-81
2022/04/06 06:31:50;;;;;;;5.97;4.63;;;16.80;94.70;;;;;;4954039;28;20034;-82
2022/04/06 06:34:16;;;;;;;6.70;3.83;;;17.00;92.60;;;;;;4954707;28;20089;-81
2022/04/06 06:36:42;;;;;;;5.22;3.30;;;17.60;88.60;;;;;;4954136;28;20094;-80
2022/04/06 06:39:08;;;;;;;4.30;3.30;;;18.20;78.50;;;;;;4954406;28;20034;-82
2022/04/06 06:41:35;;;;;;;4.10;3.45;;;18.70;75.60;;;;;;4955027;28;20051;-82
2022/04/06 06:44:01;;;;;;;4.50;3.33;;;19.00;71.00;;;;;;4955000;28;20077;-82
2022/04/06 06:46:29;;;;;;;4.75;4.00;;;18.90;69.20;;;;;;4954506;28;20051;-82
2022/04/06 06:49:02;;;;;;;6.05;4.35;;;18.80;69.50;;;;;;4971800;28;20499;-81
2022/04/06 06:51:30;;;;;;;4.38;3.45;;;18.80;69.60;;;;;;4972010;28;20574;-82
2022/04/06 06:53:56;;;;;;;4.13;3.03;;;18.80;70.40;;;;;;4970757;28;20046;-83
2022/04/06 06:56:22;;;;;;;4.65;2.95;;;19.20;69.50;;;;;;4953945;28;20542;-80
2022/04/06 06:58:47;;;;;;;3.03;1.58;;;19.60;67.80;;;;;;4953549;28;20078;-80
2022/04/06 07:01:13;;;;;;;1.67;1.05;;;19.90;64.50;;;;;;4970977;28;20019;-78
2022/04/06 07:03:38;;;;;;;2.50;1.80;;;20.00;61.90;;;;;;4971067;28;20035;-80
2022/04/06 07:06:04;;;;;;;3.17;1.73;;;19.80;60.60;;;;;;4970790;28;20050;-82
2022/04/06 07:08:30;;;;;;;3.28;1.60;;;19.60;62.50;;;;;;4970871;28;20433;-81
2022/04/06 07:10:57;;;;;;;1.90;1.40;;;19.40;61.80;;;;;;4953840;28;20491;-81
2022/04/06 07:13:23;;;;;;;2.10;1.45;;;19.40;62.70;;;;;;4969823;28;20035;-80
2022/04/06 07:15:49;;;;;;;4.32;1.73;;;19.10;64.90;;;;;;4970832;28;20089;-79
2022/04/06 07:18:17;;;;;;;2.47;1.15;;;19.00;64.20;;;;;;4969515;28;20030;-80
2022/04/06 07:20:43;;;;;;;2.20;0.93;;;18.70;67.00;;;;;;4970566;28;20031;-81
2022/04/06 07:23:09;;;;;;;2.35;1.20;;;18.50;67.90;;;;;;4953433;28;20093;-79
2022/04/06 07:25:35;;;;;;;4.80;1.40;;;18.30;67.80;;;;;;4953245;28;20391;-80
2022/04/06 07:28:02;;;;;;;3.42;1.70;;;18.00;68.20;;;;;;4953173;28;20035;-80
2022/04/06 07:30:28;;;;;;;2.92;2.08;;;17.80;69.20;;;;;;4970484;28;20072;-82
2022/04/06 07:32:54;;;;;;;4.20;2.58;;;17.50;70.40;;;;;;4952673;28;20038;-80
2022/04/06 07:35:20;;;;;;;7.88;3.15;;;17.20;75.60;;;;;;4970645;28;20468;-81
2022/04/06 07:37:50;;;;;;;3.42;2.50;;;17.40;75.90;;;;;;4970568;28;20455;-80
2022/04/06 07:40:23;;;;;;;3.75;2.45;;;17.50;73.30;;;;;;4970212;28;20602;-80
2022/04/06 07:42:49;;;;;;;4.57;2.30;;;17.40;74.90;;;;;;4970599;28;20597;-78
2022/04/06 07:45:17;;;;;;;3.22;2.35;;;17.10;76.60;;;;;;4953102;28;20031;-79
2022/04/06 07:47:44;;;;;;;3.53;2.03;;;17.00;75.80;;;;;;4970373;28;20689;-77
2022/04/06 07:50:10;;;;;;;2.83;2.03;;;16.80;81.70;;;;;;4970159;28;20058;-80
2022/04/06 07:52:36;;;;;;;2.95;2.13;;;16.70;80.70;;;;;;4953118;28;20114;-81
2022/04/06 07:55:05;;;;;;;4.53;3.38;;;16.40;81.20;;;;;;4952940;28;20031;-79
2022/04/06 07:57:30;;;;;;;4.03;2.72;;;16.40;82.80;;;;;;4970573;28;20026;-81
2022/04/06 07:59:57;;;;;;;5.20;2.70;;;16.30;83.70;;;;;;4954390;28;20031;-80
2022/04/06 08:02:22;;;;;;;4.40;3.05;;;16.20;83.70;;;;;;4954764;28;20903;-79
2022/04/06 08:04:50;;;;;;;7.93;3.00;;;16.30;84.00;;;;;;4954145;28;20118;-83
2022/04/06 08:07:16;;;;;;;7.60;3.58;;;16.50;82.60;;;;;;4971992;28;20058;-79
2022/04/06 08:09:41;;;;;;;9.60;3.50;;;16.60;80.30;;;;;;4953482;28;20066;-78
2022/04/06 08:12:07;;;;;;;5.75;3.58;;;16.70;77.60;;;;;;4971511;28;20054;-82
2022/04/06 08:14:33;;;;;;;5.78;3.88;;;16.90;76.40;;;;;;4953453;28;20047;-78
2022/04/06 08:16:59;;;;;;;6.13;3.88;;;17.20;74.40;;;;;;4953851;28;20031;-80
2022/04/06 08:19:25;;;;;;;6.38;4.88;;;17.50;72.70;;;;;;4971024;28;20027;-80
2022/04/06 08:21:52;;;;;;;8.02;4.60;;;17.60;68.80;;;;;;4971883;28;20023;-82
2022/04/06 08:24:18;;;;;;;7.38;4.10;;;17.70;66.70;;;;;;4971491;28;20109;-81
2022/04/06 08:26:43;;;;;;;5.97;4.60;;;17.30;67.60;;;;;;4954180;28;20503;-81
2022/04/06 08:29:09;;;;;;;7.28;4.40;;;17.40;71.30;;;;;;4953591;28;20073;-81
2022/04/06 08:31:35;;;;;;;7.50;5.03;;;18.20;70.40;;;;;;4971470;28;20027;-80
2022/04/06 08:34:03;;;;;;;6.13;4.57;;;19.50;61.20;;;;;;4971802;28;20414;-81
2022/04/06 08:36:29;;;;;;;6.38;4.32;;;20.40;57.30;;;;;;4955016;28;20023;-83
2022/04/06 08:38:55;;;;;;;5.93;4.22;;;21.30;53.40;;;;;;4970395;28;20066;-84
2022/04/06 08:42:00;;;;;;;6.30;4.15;;;22.00;51.50;;;;;;4969221;28;20100;-80
2022/04/06 08:44:26;;;;;;;5.47;4.45;;;22.60;50.70;;;;;;4952224;28;20042;-80
2022/04/06 08:46:52;;;;;;;6.70;3.63;;;22.90;48.50;;;;;;4952148;28;20034;-81
2022/04/06 08:49:23;;;;;;;4.90;4.18;;;23.40;47.80;;;;;;4968664;28;20033;-80
2022/04/06 08:51:48;;;;;;;2.05;1.60;;;24.10;45.30;;;;;;4969509;28;20861;-81
2022/04/06 08:54:14;;;;;;;2.90;2.00;;;24.20;46.20;;;;;;4969887;28;20053;-80
2022/04/06 08:56:40;;;;;;;5.50;3.42;;;24.50;45.10;;;;;;4955822;28;20034;-79
2022/04/06 08:59:06;;;;;;;3.40;2.67;;;24.50;43.80;;;;;;4956134;28;20053;-79
2022/04/06 09:01:33;;;;;;;4.05;2.83;;;24.40;44.00;;;;;;4973124;28;20381;-80
2022/04/06 09:04:00;;;;;;;6.32;3.03;;;24.10;43.70;;;;;;4973096;28;20023;-79
2022/04/06 09:06:29;;;;;;;3.47;2.42;;;24.20;44.00;;;;;;4955505;28;20097;-80
2022/04/06 09:08:55;;;;;;;3.40;2.53;;;24.30;43.40;;;;;;4972993;28;20058;-80
2022/04/06 09:11:21;;;;;;;4.78;2.42;;;24.10;43.90;;;;;;4955594;28;20116;-78
2022/04/06 09:13:56;;;;;;;3.58;2.45;;;23.60;43.00;;;;;;4955352;28;20073;-79
2022/04/06 09:16:24;;;;;;;4.25;2.25;;;23.10;44.40;;;;;;4955595;28;20030;-80
2022/04/06 09:18:50;;;;;;;5.88;2.38;;;23.00;45.00;;;;;;4955778;28;20074;-79
2022/04/06 09:21:17;;;;;;;3.20;2.33;;;23.10;44.10;;;;;;4973102;28;20031;-78
2022/04/06 09:23:48;;;;;;;3.58;2.60;;;23.10;44.40;;;;;;4955239;28;20388;-79
2022/04/06 09:26:17;;;;;;;3.08;2.47;;;23.20;44.70;;;;;;4955336;28;20126;-80
2022/04/06 09:28:45;;;;;;;4.50;2.92;;;23.20;44.30;;;;;;4955462;28;20027;-80
2022/04/06 09:31:21;;;;;;;4.78;3.13;;;22.80;43.20;;;;;;4955458;28;20023;-79
2022/04/06 09:33:57;;;;;;;;;;;22.10;44.40;;;;;;4955611;28;20046;-79
2022/04/06 09:36:26;;;;;;;4.00;2.90;;;21.30;46.20;;;;;;4972546;28;19910;-79
2022/04/06 09:38:52;;;;;;;4.03;2.83;;;21.10;47.60;;;;;;4972481;28;20089;-79
2022/04/06 09:41:19;;;;;;;3.65;1.98;;;21.20;47.10;;;;;;4954856;28;20422;-78
2022/04/06 09:43:46;;;;;;;4.90;2.80;;;21.50;47.20;;;;;;4972657;28;20019;-78
2022/04/06 09:49:14;;;;;;;5.07;2.83;;;21.90;45.60;;;;;;4972732;28;20045;-81
2022/04/06 09:51:42;;;;;;;4.85;2.83;;;21.80;45.60;;;;;;4972363;28;20070;-80
2022/04/06 09:54:09;;;;;;;4.22;2.50;;;21.70;46.00;;;;;;4954956;28;20545;-78
2022/04/06 09:56:36;;;;;;;4.45;2.67;;;21.50;46.40;;;;;;4954957;28;20091;-78
2022/04/06 09:59:03;;;;;;;6.70;2.70;;;21.60;46.30;;;;;;4954804;28;20026;-80
2022/04/06 10:01:52;;;;;;;6.45;2.67;;;21.90;46.00;;;;;;4972611;28;20030;-81
2022/04/06 10:04:21;;;;;;;5.78;2.70;;;21.50;45.70;;;;;;4972364;28;20450;-80
2022/04/06 10:06:49;;;;;;;3.55;2.50;;;21.30;45.80;;;;;;4971048;28;20023;-80
2022/04/06 10:09:15;;;;;;;5.53;2.55;;;21.00;46.70;;;;;;4954782;28;20472;-79
2022/04/06 10:11:42;;;;;;;7.15;2.92;;;20.70;47.40;;;;;;4954883;28;20644;-80
2022/04/06 10:14:10;;;;;;;2.97;2.10;;;20.40;47.80;;;;;;4954883;28;20043;-80
2022/04/06 10:16:38;;;;;;;5.10;2.60;;;20.20;49.00;;;;;;4970808;28;20077;-80
2022/04/06 10:19:06;;;;;;;3.58;2.00;;;20.40;49.30;;;;;;4955049;28;20039;-80
2022/04/06 10:22:01;;;;;;;5.53;1.55;;;20.40;49.40;;;;;;4972186;28;20031;-79
2022/04/06 10:24:39;;;;;;;3.00;1.63;;;20.50;48.20;;;;;;4954324;28;20398;-80
2022/04/06 10:27:28;;;;;;;3.28;1.80;;;20.30;48.20;;;;;;4972010;28;20035;-79
2022/04/06 10:30:06;;;;;;;3.25;1.60;;;20.10;48.50;;;;;;4954483;28;20030;-80
2022/04/06 10:32:32;;;;;;;2.92;1.67;;;19.90;49.60;;;;;;4954404;28;20030;-80
2022/04/06 10:35:21;;;;;;;2.72;1.83;;;19.80;49.30;;;;;;4954238;28;20038;-79
2022/04/06 10:38:00;;;;;;;2.80;1.45;;;20.00;50.40;;;;;;4971868;28;20035;-80
2022/04/06 10:40:31;;;;;;;3.40;1.48;;;20.10;49.30;;;;;;4950393;29;20055;-79
2022/04/06 10:42:57;;;;;;;3.03;1.23;;;20.00;49.40;;;;;;4950827;29;20039;-78
2022/04/06 10:45:29;;;;;;;3.10;1.60;;;19.90;49.60;;;;;;4951072;29;20570;-80
2022/04/06 10:48:14;;;;;;;3.88;1.20;;;19.80;49.70;;;;;;4951923;29;20027;-78
2022/04/06 10:50:45;;;;;;;2.53;1.25;;;19.70;50.40;;;;;;4950996;29;20027;-79
2022/04/06 10:53:31;;;;;;;4.20;1.38;;;19.70;49.40;;;;;;4950701;29;20400;-78
2022/04/06 10:56:06;;;;;;;1.45;0.85;;;19.60;50.00;;;;;;4950838;29;20780;-80
2022/04/06 10:58:57;;;;;;;3.63;0.90;;;19.50;49.50;;;;;;4951516;29;20586;-80
2022/04/06 11:01:31;;;;;;;3.08;0.95;;;19.50;49.80;;;;;;4950554;29;20035;-80
2022/04/06 11:04:00;;;;;;;2.00;0.98;;;19.60;49.90;;;;;;4950524;29;20126;-81
2022/04/06 11:06:41;;;;;;;2.30;0.70;;;19.70;49.70;;;;;;4951750;29;20033;-81
2022/04/06 11:12:23;;;;;;;2.10;0.93;;;19.70;48.80;;;;;;4952071;29;20119;-81
2022/04/06 11:15:08;;;;;;;1.90;0.70;;;19.90;49.40;;;;;;4949942;29;20173;-80
2022/04/06 11:17:38;;;;;;;2.30;0.88;;;20.20;49.40;;;;;;4920572;29;20035;-79
2022/04/06 11:20:16;;;;;;;2.45;1.00;;;20.30;48.90;;;;;;4950141;29;20130;-80
2022/04/06 11:22:53;;;;;;;2.05;0.98;;;20.50;47.10;;;;;;4951522;29;20562;-79
2022/04/06 11:25:21;;;;;;;0.88;0.55;;;20.60;47.20;;;;;;4951735;29;20023;-80
2022/04/06 11:27:48;;;;;;;3.53;2.28;;;20.50;47.50;;;;;;4950137;29;20051;-81
2022/04/06 11:30:19;;;;;;;3.55;0.82;;;20.70;45.80;;;;;;4950152;29;20114;-81
2022/04/06 11:32:55;;;;;;;1.88;0.80;;;20.60;46.10;;;;;;4950365;29;20031;-80
2022/04/06 11:35:28;;;;;;;4.82;1.20;;;20.50;46.10;;;;;;4951065;29;20047;-81
2022/04/06 11:37:54;;;;;;;1.80;0.90;;;20.60;46.00;;;;;;4951213;29;20097;-81
2022/04/06 11:40:22;;;;;;;1.65;0.95;;;20.40;46.80;;;;;;4936716;28;20838;-79
2022/04/06 11:42:59;;;;;;;2.05;0.95;;;20.40;46.40;;;;;;4953127;28;20062;-80
2022/04/06 11:45:26;;;;;;;;;;;20.40;47.00;;;;;;4953447;28;20035;-79
2022/04/06 11:48:04;;;;;;;4.07;0.90;;;20.40;46.90;;;;;;4953068;28;20033;-80
2022/04/06 11:50:36;;;;;;;2.75;1.40;;;20.50;46.90;;;;;;4970102;28;20405;-80
2022/04/06 11:53:03;;;;;;;5.97;1.33;;;20.40;46.50;;;;;;4968938;28;20031;-79
2022/04/06 11:55:47;;;;;;;2.33;1.00;;;20.30;46.60;;;;;;4970451;28;20050;-80
2022/04/06 11:58:31;;;;;;;2.22;1.40;;;20.20;47.20;;;;;;4952729;28;20034;-79
2022/04/06 12:00:59;;;;;;;2.13;1.42;;;20.10;46.80;;;;;;4952875;28;20046;-79
2022/04/06 12:03:33;;;;;;;2.25;1.38;;;20.20;47.20;;;;;;4953043;28;20128;-79
2022/04/06 12:05:59;;;;;;;2.88;1.30;;;20.30;47.40;;;;;;4952706;28;20031;-80
2022/04/06 12:08:25;;;;;;;3.42;1.83;;;20.40;46.60;;;;;;4970327;28;20038;-75
2022/04/06 12:10:58;;;;;;;2.75;1.50;;;20.30;46.40;;;;;;4952697;28;20407;-77
2022/04/06 12:13:29;;;;;;;2.05;1.42;;;20.20;46.50;;;;;;4969739;28;20031;-78
2022/04/06 12:15:55;;;;;;;2.80;1.40;;;20.20;47.10;;;;;;4968434;28;20133;-77
2022/04/06 12:18:23;;;;;;;3.75;1.30;;;20.30;46.90;;;;;;4968586;28;20110;-78
2022/04/06 12:20:50;;;;;;;1.90;1.20;;;20.50;47.40;;;;;;4969676;28;20034;-77
2022/04/06 12:23:17;;;;;;;2.20;1.40;;;20.60;46.80;;;;;;4952273;28;20514;-78
2022/04/06 12:25:43;;;;;;;3.15;2.00;;;20.60;47.30;;;;;;4969898;28;20503;-78
2022/04/06 12:28:22;;;;;;;3.30;1.80;;;20.60;47.10;;;;;;4952471;28;20158;-79
2022/04/06 12:30:55;;;;;;;4.20;2.40;;;20.60;47.00;;;;;;4951656;28;20035;-79
2022/04/06 12:33:50;;;;;;;2.83;1.50;;;20.60;47.00;;;;;;4969620;28;20034;-81
2022/04/06 12:36:27;;;;;;;2.47;1.70;;;20.50;47.00;;;;;;4969884;28;20093;-79
2022/04/06 12:39:03;;;;;;;2.40;1.13;;;20.50;46.90;;;;;;4952319;28;20122;-79
2022/04/06 12:41:31;;;;;;;2.55;1.55;;;20.50;47.40;;;;;;4969662;28;20051;-79
2022/04/06 12:43:58;;;;;;;2.75;1.80;;;20.50;46.60;;;;;;4952267;28;20035;-79
2022/04/06 12:46:44;;;;;;;3.22;2.10;;;20.50;46.70;;;;;;4969582;28;20077;-79
2022/04/06 12:49:36;;;;;;;3.35;1.65;;;20.20;46.80;;;;;;4968342;28;20027;-79
2022/04/06 12:52:16;;;;;;;2.38;1.30;;;20.00;48.50;;;;;;4969712;28;20031;-79
2022/04/06 12:54:44;;;;;;;3.42;1.70;;;19.90;48.80;;;;;;4969392;28;20043;-79
2022/04/06 12:57:13;;;;;;;6.00;1.80;;;19.90;48.60;;;;;;4968333;28;20059;-80
2022/04/06 12:59:42;;;;;;;3.33;1.55;;;19.90;47.80;;;;;;4968253;28;20503;-80
2022/04/06 13:02:25;;;;;;;4.22;1.20;;;19.80;48.30;;;;;;4969265;28;20027;-79
2022/04/06 13:04:52;;;;;;;1.95;1.25;;;19.80;48.20;;;;;;4952041;28;20106;-80
2022/04/06 13:07:19;;;;;;;2.47;1.30;;;19.70;48.30;;;;;;4952079;28;20121;-78
2022/04/06 13:09:54;;;;;;;2.90;1.30;;;19.80;48.10;;;;;;4952030;28;20035;-78
2022/04/06 13:12:21;;;;;;;2.15;1.52;;;19.80;48.50;;;;;;4968024;28;20058;-78
2022/04/06 13:14:47;;;;;;;2.13;1.55;;;19.80;48.00;;;;;;4951578;28;20511;-80
2022/04/06 13:17:13;;;;;;;2.35;1.40;;;19.70;48.00;;;;;;4951593;28;20038;-80